TimeMDT,TemperatureF,Dew PointF,Humidity,Sea Level PressureIn,VisibilityMPH,Wind Direction,Wind SpeedMPH,Gust SpeedMPH,PrecipitationIn,Events,Conditions,WindDirDegrees,DateUTC
12:00 AM,42,34,64,,,ENE,2.3,,,,,70,2013-10-22 06:00:00
12:00 AM,42.3,34.0,72,-9999,-9999.0,ENE,2.3,-,N/A,,Unknown,70,2013-10-22 06:00:00
1:00 AM,38.7,33.6,82,-9999,-9999.0,WNW,2.3,-,N/A,,Unknown,300,2013-10-22 07:00:00
2:00 AM,38.5,33.6,83,-9999,-9999.0,SSW,4.6,-,N/A,,Unknown,200,2013-10-22 08:00:00
3:00 AM,34.0,31.6,91,-9999,-9999.0,SW,4.6,-,N/A,,Unknown,220,2013-10-22 09:00:00
4:00 AM,30.9,29.5,94,-9999,-9999.0,SSE,4.6,-,N/A,,Unknown,150,2013-10-22 10:00:00
5:00 AM,30.6,28.8,93,-9999,-9999.0,SE,1.2,-,N/A,,Unknown,130,2013-10-22 11:00:00
6:00 AM,34,32,87,,,SSW,4.6,,,,,200,2013-10-22 12:00:00
6:00 AM,33.6,31.6,92,-9999,-9999.0,SSW,4.6,-,N/A,,Unknown,200,2013-10-22 12:00:00
7:00 AM,31.6,30.4,95,-9999,-9999.0,SSE,8.1,-,N/A,,Unknown,150,2013-10-22 13:00:00
8:00 AM,31.3,29.7,94,-9999,-9999.0,South,4.6,-,N/A,,Unknown,170,2013-10-22 14:00:00
9:00 AM,31.5,30.4,96,-9999,-9999.0,SE,5.8,-,N/A,,Unknown,130,2013-10-22 15:00:00
10:00 AM,41.9,37.6,85,-9999,-9999.0,SE,3.5,-,N/A,,Unknown,140,2013-10-22 16:00:00
11:00 AM,55.9,37.0,49,-9999,-9999.0,WNW,3.5,-,N/A,,Unknown,290,2013-10-22 17:00:00
12:00 PM,62,34,23,,,WNW,9.2,,,,,290,2013-10-22 18:00:00
12:00 PM,62.2,33.8,35,-9999,-9999.0,WNW,9.2,-,N/A,,Unknown,290,2013-10-22 18:00:00
1:00 PM,64.6,35.2,34,-9999,-9999.0,West,8.1,-,N/A,,Unknown,280,2013-10-22 19:00:00
2:00 PM,66.2,35.6,32,-9999,-9999.0,WNW,6.9,-,N/A,,Unknown,290,2013-10-22 20:00:00
3:00 PM,66.2,30.7,27,-9999,-9999.0,North,8.1,-,N/A,,Unknown,360,2013-10-22 21:00:00
4:00 PM,64.0,33.1,31,-9999,-9999.0,NNE,8.1,-,N/A,,Unknown,30,2013-10-22 22:00:00
5:00 PM,62.6,32.0,32,-9999,-9999.0,NNE,5.8,-,N/A,,Unknown,30,2013-10-22 23:00:00
6:00 PM,59,33,25,,,NNE,2.3,,,,,30,2013-10-23 00:00:00
6:00 PM,58.8,31.3,35,-9999,-9999.0,NNE,2.3,-,N/A,,Unknown,30,2013-10-23 00:00:00
7:00 PM,51.8,31.5,46,-9999,-9999.0,Calm,Calm,-,N/A,,Unknown,0,2013-10-23 01:00:00
8:00 PM,46.6,34.0,62,-9999,-9999.0,SSE,3.5,-,N/A,,Unknown,160,2013-10-23 02:00:00
9:00 PM,47.1,35.6,64,-9999,-9999.0,SW,1.2,-,N/A,,Unknown,220,2013-10-23 03:00:00
10:00 PM,44.1,34.3,69,-9999,-9999.0,WSW,2.3,-,N/A,,Unknown,240,2013-10-23 04:00:00
11:00 PM,43.7,35.2,72,-9999,-9999.0,SW,5.8,-,N/A,,Unknown,230,2013-10-23 05:00:00